This is the latest recevied weather packets stored in our database for station/object DO1SC. If no packets are shown the sender has not sent any weather packets the latest 1 day(s).
| Time | Temp. | Humidity | Pressure | Rain* | Wind** | Luminosity | Snow |
|---|---|---|---|---|---|---|---|
| 1778082023 | 16.67° C | 54% | 1006.1 hPa | - | - | 121 W/m² | - |
| 1778080220 | 16.67° C | 58% | 1006.4 hPa | - | - | 163 W/m² | - |
| 1778077237 | 17.22° C | 56% | 1006.5 hPa | - | - | 199 W/m² | - |
| 1778076627 | 16.67° C | 56% | 1006.4 hPa | - | - | 223 W/m² | - |
| 1778076019 | 16.67° C | 58% | 1006.5 hPa | - | - | 228 W/m² | - |
| 1778074822 | 16.11° C | 58% | 1006.7 hPa | - | - | 271 W/m² | - |
| 1778071819 | 16.67° C | 56% | 1006.9 hPa | - | - | 243 W/m² | - |
| 1778071231 | 16.67° C | 59% | 1006.9 hPa | - | - | 265 W/m² | - |
| 1778069728 | 16.67° C | 62% | 1007.1 hPa | - | - | 241 W/m² | - |
| 1778067635 | 15° C | 70% | 1007.2 hPa | - | - | 150 W/m² | - |
| 1778067026 | 15° C | 71% | 1007.2 hPa | - | - | 95 W/m² | - |
| 1778065830 | 14.44° C | 71% | 1007.2 hPa | - | - | 412 W/m² | - |
| 1778064025 | 15.56° C | 71% | 1007.2 hPa | - | - | 94 W/m² | - |
| 1778061023 | 12.78° C | 81% | 1007.3 hPa | - | - | 191 W/m² | - |
| 1778058629 | 14.44° C | 74% | 1007.2 hPa | - | - | 383 W/m² | - |
| 1778057432 | 13.33° C | 78% | 1007 hPa | - | - | 609 W/m² | - |
| 1778055334 | 12.78° C | 79% | 1006.8 hPa | - | - | 1035 W/m² | - |
| 1778054130 | 13.33° C | 83% | 1006.7 hPa | - | - | 298 W/m² | - |
| 1778053522 | 12.78° C | 84% | 1006.7 hPa | - | - | 282 W/m² | - |
| 1778052937 | 12.78° C | 84% | 1006.6 hPa | - | - | 254 W/m² | - |
| 1778051717 | 11.67° C | 88% | 1006.6 hPa | - | - | 179 W/m² | - |
| 1778051129 | 11.67° C | 88% | 1006.7 hPa | - | - | 127 W/m² | - |
| 1778050520 | 11.67° C | 88% | 1006.7 hPa | - | - | 98 W/m² | - |
| 1778049932 | 11.67° C | 88% | 1006.8 hPa | - | - | 167 W/m² | - |
| 1778048735 | 11.11° C | 91% | 1006.8 hPa | - | - | 78 W/m² | - |
* Rain since midnight (hover to see other rain measurements)
** Current wind speed in m/s (hover to see current wind gust speed)